sensor_id;sensor_type;location;lat;lon;timestamp;temperature;humidity
48019;DHT22;33786;48.690;9.562;2024-03-23T00:55:41;5.00;99.90
48019;DHT22;33786;48.690;9.562;2024-03-23T00:58:07;5.00;99.90
48019;DHT22;33786;48.690;9.562;2024-03-23T01:00:33;5.00;99.90
48019;DHT22;33786;48.690;9.562;2024-03-23T01:02:59;5.00;99.90
48019;DHT22;33786;48.690;9.562;2024-03-23T01:05:25;4.90;99.90
48019;DHT22;33786;48.690;9.562;2024-03-23T01:07:51;4.90;99.90
48019;DHT22;33786;48.690;9.562;2024-03-23T01:10:17;4.90;99.90
48019;DHT22;33786;48.690;9.562;2024-03-23T01:12:43;4.90;99.90
48019;DHT22;33786;48.690;9.562;2024-03-23T01:15:09;4.90;99.90
48019;DHT22;33786;48.690;9.562;2024-03-23T01:17:35;4.80;99.90
48019;DHT22;33786;48.690;9.562;2024-03-23T01:20:01;4.80;99.90
48019;DHT22;33786;48.690;9.562;2024-03-23T01:22:26;4.90;99.90
48019;DHT22;33786;48.690;9.562;2024-03-23T01:24:52;4.80;99.90
48019;DHT22;33786;48.690;9.562;2024-03-23T01:27:18;4.80;99.90
48019;DHT22;33786;48.690;9.562;2024-03-23T01:29:44;4.70;99.90
48019;DHT22;33786;48.690;9.562;2024-03-23T01:32:10;4.70;99.90
48019;DHT22;33786;48.690;9.562;2024-03-23T01:34:36;4.60;99.90
48019;DHT22;33786;48.690;9.562;2024-03-23T01:37:02;4.60;99.90
48019;DHT22;33786;48.690;9.562;2024-03-23T01:39:27;4.60;99.90
48019;DHT22;33786;48.690;9.562;2024-03-23T01:41:53;4.60;99.90
48019;DHT22;33786;48.690;9.562;2024-03-23T01:44:19;4.50;99.90
48019;DHT22;33786;48.690;9.562;2024-03-23T01:46:45;4.50;99.90
48019;DHT22;33786;48.690;9.562;2024-03-23T01:49:11;4.50;99.90
48019;DHT22;33786;48.690;9.562;2024-03-23T01:51:37;4.50;99.90
48019;DHT22;33786;48.690;9.562;2024-03-23T01:54:04;4.50;99.90
48019;DHT22;33786;48.690;9.562;2024-03-23T01:56:31;4.50;99.90
48019;DHT22;33786;48.690;9.562;2024-03-23T01:58:58;4.50;99.90
48019;DHT22;33786;48.690;9.562;2024-03-23T02:01:24;4.50;99.90
48019;DHT22;33786;48.690;9.562;2024-03-23T02:03:50;4.50;99.90
48019;DHT22;33786;48.690;9.562;2024-03-23T02:06:16;4.50;99.90
48019;DHT22;33786;48.690;9.562;2024-03-23T02:08:43;4.50;99.90
48019;DHT22;33786;48.690;9.562;2024-03-23T02:11:09;4.40;99.90
48019;DHT22;33786;48.690;9.562;2024-03-23T02:13:35;4.50;99.90
48019;DHT22;33786;48.690;9.562;2024-03-23T02:16:01;4.50;99.90
48019;DHT22;33786;48.690;9.562;2024-03-23T02:18:27;4.50;99.90
48019;DHT22;33786;48.690;9.562;2024-03-23T02:20:53;4.50;99.90
48019;DHT22;33786;48.690;9.562;2024-03-23T02:23:19;4.50;99.90
48019;DHT22;33786;48.690;9.562;2024-03-23T02:25:45;4.50;99.90
48019;DHT22;33786;48.690;9.562;2024-03-23T02:28:11;4.60;99.90
48019;DHT22;33786;48.690;9.562;2024-03-23T02:30:37;4.60;99.90
48019;DHT22;33786;48.690;9.562;2024-03-23T02:33:04;4.60;99.90
48019;DHT22;33786;48.690;9.562;2024-03-23T02:35:30;4.50;99.90
48019;DHT22;33786;48.690;9.562;2024-03-23T02:37:56;4.50;99.90
48019;DHT22;33786;48.690;9.562;2024-03-23T02:40:25;4.40;99.90
48019;DHT22;33786;48.690;9.562;2024-03-23T02:42:52;4.40;99.90
48019;DHT22;33786;48.690;9.562;2024-03-23T02:45:18;4.50;99.90
48019;DHT22;33786;48.690;9.562;2024-03-23T02:47:44;4.50;99.90
48019;DHT22;33786;48.690;9.562;2024-03-23T02:50:10;4.50;99.90
48019;DHT22;33786;48.690;9.562;2024-03-23T02:52:36;4.50;99.90
48019;DHT22;33786;48.690;9.562;2024-03-23T02:55:03;4.60;99.90
48019;DHT22;33786;48.690;9.562;2024-03-23T02:57:29;4.50;99.90
48019;DHT22;33786;48.690;9.562;2024-03-23T02:59:55;4.50;99.90
48019;DHT22;33786;48.690;9.562;2024-03-23T03:02:21;4.60;99.90
48019;DHT22;33786;48.690;9.562;2024-03-23T03:04:47;4.50;99.90
48019;DHT22;33786;48.690;9.562;2024-03-23T03:07:14;4.50;99.90
48019;DHT22;33786;48.690;9.562;2024-03-23T03:09:40;4.60;99.90
48019;DHT22;33786;48.690;9.562;2024-03-23T03:12:06;4.50;99.90
48019;DHT22;33786;48.690;9.562;2024-03-23T03:14:32;4.50;99.90
48019;DHT22;33786;48.690;9.562;2024-03-23T03:16:58;4.40;99.90
48019;DHT22;33786;48.690;9.562;2024-03-23T03:19:24;4.50;99.90
48019;DHT22;33786;48.690;9.562;2024-03-23T03:21:50;4.40;99.90
48019;DHT22;33786;48.690;9.562;2024-03-23T03:24:16;4.50;99.90
48019;DHT22;33786;48.690;9.562;2024-03-23T03:26:42;4.50;99.90
48019;DHT22;33786;48.690;9.562;2024-03-23T03:29:08;4.50;99.90
48019;DHT22;33786;48.690;9.562;2024-03-23T03:31:35;4.60;99.90
48019;DHT22;33786;48.690;9.562;2024-03-23T03:34:00;4.60;99.90
48019;DHT22;33786;48.690;9.562;2024-03-23T03:36:26;4.60;99.90
48019;DHT22;33786;48.690;9.562;2024-03-23T03:38:52;4.70;99.90
48019;DHT22;33786;48.690;9.562;2024-03-23T03:41:18;4.70;99.90
48019;DHT22;33786;48.690;9.562;2024-03-23T03:43:44;4.80;99.90
48019;DHT22;33786;48.690;9.562;2024-03-23T03:46:10;4.80;99.90
48019;DHT22;33786;48.690;9.562;2024-03-23T03:48:37;4.90;99.90
48019;DHT22;33786;48.690;9.562;2024-03-23T03:51:03;5.00;99.90
48019;DHT22;33786;48.690;9.562;2024-03-23T03:53:29;4.90;99.90
48019;DHT22;33786;48.690;9.562;2024-03-23T03:55:56;4.90;99.90
48019;DHT22;33786;48.690;9.562;2024-03-23T03:58:22;4.90;99.90
48019;DHT22;33786;48.690;9.562;2024-03-23T04:00:47;4.90;99.90
48019;DHT22;33786;48.690;9.562;2024-03-23T04:03:14;4.90;99.90
48019;DHT22;33786;48.690;9.562;2024-03-23T04:05:40;4.90;99.90
48019;DHT22;33786;48.690;9.562;2024-03-23T04:08:07;4.80;99.90
48019;DHT22;33786;48.690;9.562;2024-03-23T04:10:33;4.80;99.90
48019;DHT22;33786;48.690;9.562;2024-03-23T04:12:59;4.80;99.90
48019;DHT22;33786;48.690;9.562;2024-03-23T04:15:24;4.80;99.90
48019;DHT22;33786;48.690;9.562;2024-03-23T04:17:50;4.70;99.90
48019;DHT22;33786;48.690;9.562;2024-03-23T04:20:16;4.70;99.90
48019;DHT22;33786;48.690;9.562;2024-03-23T04:22:43;4.70;99.90
48019;DHT22;33786;48.690;9.562;2024-03-23T04:25:09;4.60;99.90
48019;DHT22;33786;48.690;9.562;2024-03-23T04:27:36;4.60;99.90
48019;DHT22;33786;48.690;9.562;2024-03-23T04:30:03;4.50;99.90
48019;DHT22;33786;48.690;9.562;2024-03-23T04:32:31;4.50;99.90
48019;DHT22;33786;48.690;9.562;2024-03-23T04:34:57;4.50;99.90
48019;DHT22;33786;48.690;9.562;2024-03-23T04:37:23;4.50;99.90
48019;DHT22;33786;48.690;9.562;2024-03-23T04:39:49;4.40;99.90
48019;DHT22;33786;48.690;9.562;2024-03-23T04:42:15;4.40;99.90
48019;DHT22;33786;48.690;9.562;2024-03-23T04:44:42;4.40;99.90
48019;DHT22;33786;48.690;9.562;2024-03-23T04:47:07;4.40;99.90
48019;DHT22;33786;48.690;9.562;2024-03-23T04:49:33;4.50;99.90
48019;DHT22;33786;48.690;9.562;2024-03-23T04:52:03;4.60;99.90
48019;DHT22;33786;48.690;9.562;2024-03-23T04:54:30;4.60;99.90
48019;DHT22;33786;48.690;9.562;2024-03-23T04:56:56;4.60;99.90
48019;DHT22;33786;48.690;9.562;2024-03-23T04:59:22;4.60;99.90
48019;DHT22;33786;48.690;9.562;2024-03-23T05:01:47;4.60;99.90
48019;DHT22;33786;48.690;9.562;2024-03-23T05:04:13;4.70;99.90
48019;DHT22;33786;48.690;9.562;2024-03-23T05:06:39;4.80;99.90
48019;DHT22;33786;48.690;9.562;2024-03-23T05:09:05;4.80;99.90
48019;DHT22;33786;48.690;9.562;2024-03-23T05:11:38;4.90;99.90
48019;DHT22;33786;48.690;9.562;2024-03-23T05:14:04;5.00;99.90
48019;DHT22;33786;48.690;9.562;2024-03-23T05:16:30;5.10;99.90
48019;DHT22;33786;48.690;9.562;2024-03-23T05:18:56;5.20;99.90
48019;DHT22;33786;48.690;9.562;2024-03-23T05:21:22;5.30;99.90
48019;DHT22;33786;48.690;9.562;2024-03-23T05:23:48;5.40;99.90
48019;DHT22;33786;48.690;9.562;2024-03-23T05:26:14;5.70;99.90
48019;DHT22;33786;48.690;9.562;2024-03-23T05:28:40;5.90;99.90
48019;DHT22;33786;48.690;9.562;2024-03-23T05:31:06;6.50;99.90
48019;DHT22;33786;48.690;9.562;2024-03-23T05:33:32;7.00;99.90
48019;DHT22;33786;48.690;9.562;2024-03-23T05:36:00;7.20;99.90
48019;DHT22;33786;48.690;9.562;2024-03-23T05:38:26;7.60;99.90
48019;DHT22;33786;48.690;9.562;2024-03-23T05:40:56;7.80;99.90
48019;DHT22;33786;48.690;9.562;2024-03-23T05:43:22;7.90;99.90
48019;DHT22;33786;48.690;9.562;2024-03-23T05:46:06;8.10;99.90
48019;DHT22;33786;48.690;9.562;2024-03-23T05:48:33;8.30;99.90
48019;DHT22;33786;48.690;9.562;2024-03-23T05:50:59;8.50;99.90
48019;DHT22;33786;48.690;9.562;2024-03-23T05:53:25;8.70;99.90
48019;DHT22;33786;48.690;9.562;2024-03-23T05:55:51;8.80;99.90
48019;DHT22;33786;48.690;9.562;2024-03-23T05:58:25;8.80;99.90
48019;DHT22;33786;48.690;9.562;2024-03-23T06:00:57;9.00;99.90
48019;DHT22;33786;48.690;9.562;2024-03-23T06:03:24;9.00;99.90
48019;DHT22;33786;48.690;9.562;2024-03-23T06:05:51;9.10;99.90
48019;DHT22;33786;48.690;9.562;2024-03-23T06:08:17;9.20;99.90
48019;DHT22;33786;48.690;9.562;2024-03-23T06:10:42;9.30;99.90
48019;DHT22;33786;48.690;9.562;2024-03-23T06:13:08;9.20;99.90
48019;DHT22;33786;48.690;9.562;2024-03-23T06:15:34;9.30;99.90
48019;DHT22;33786;48.690;9.562;2024-03-23T06:18:03;9.20;99.90
48019;DHT22;33786;48.690;9.562;2024-03-23T06:20:30;9.30;99.90
48019;DHT22;33786;48.690;9.562;2024-03-23T06:22:56;9.30;99.90
48019;DHT22;33786;48.690;9.562;2024-03-23T06:25:22;9.30;99.90
48019;DHT22;33786;48.690;9.562;2024-03-23T06:27:48;9.30;99.90
48019;DHT22;33786;48.690;9.562;2024-03-23T06:30:13;9.30;99.90
48019;DHT22;33786;48.690;9.562;2024-03-23T06:32:39;9.30;99.90
48019;DHT22;33786;48.690;9.562;2024-03-23T06:35:05;9.40;99.90
48019;DHT22;33786;48.690;9.562;2024-03-23T06:37:35;9.40;99.90
48019;DHT22;33786;48.690;9.562;2024-03-23T06:40:01;9.30;99.90
48019;DHT22;33786;48.690;9.562;2024-03-23T06:42:27;9.30;99.90
48019;DHT22;33786;48.690;9.562;2024-03-23T06:44:53;9.20;99.90
48019;DHT22;33786;48.690;9.562;2024-03-23T06:47:18;9.20;99.90
48019;DHT22;33786;48.690;9.562;2024-03-23T06:49:44;9.20;99.90
48019;DHT22;33786;48.690;9.562;2024-03-23T06:52:10;9.10;99.90
48019;DHT22;33786;48.690;9.562;2024-03-23T06:54:36;9.10;99.90
48019;DHT22;33786;48.690;9.562;2024-03-23T06:57:02;9.00;99.90
48019;DHT22;33786;48.690;9.562;2024-03-23T06:59:28;9.00;99.90
48019;DHT22;33786;48.690;9.562;2024-03-23T07:01:54;9.00;99.90
48019;DHT22;33786;48.690;9.562;2024-03-23T07:04:20;9.00;99.90
48019;DHT22;33786;48.690;9.562;2024-03-23T07:06:46;9.00;99.90
48019;DHT22;33786;48.690;9.562;2024-03-23T07:09:11;9.00;99.90
48019;DHT22;33786;48.690;9.562;2024-03-23T07:11:38;9.00;99.90
48019;DHT22;33786;48.690;9.562;2024-03-23T07:14:04;8.90;99.90
48019;DHT22;33786;48.690;9.562;2024-03-23T07:16:30;8.90;99.90
48019;DHT22;33786;48.690;9.562;2024-03-23T07:18:56;8.80;99.90
48019;DHT22;33786;48.690;9.562;2024-03-23T07:21:22;8.60;99.90
48019;DHT22;33786;48.690;9.562;2024-03-23T07:23:47;8.80;99.90
48019;DHT22;33786;48.690;9.562;2024-03-23T07:26:13;8.90;99.90
48019;DHT22;33786;48.690;9.562;2024-03-23T07:28:40;9.10;99.90
48019;DHT22;33786;48.690;9.562;2024-03-23T07:31:11;9.10;99.90
48019;DHT22;33786;48.690;9.562;2024-03-23T07:33:41;9.30;99.90
48019;DHT22;33786;48.690;9.562;2024-03-23T07:36:07;9.10;99.90
48019;DHT22;33786;48.690;9.562;2024-03-23T07:38:34;9.20;99.90
48019;DHT22;33786;48.690;9.562;2024-03-23T07:41:06;9.50;99.90
48019;DHT22;33786;48.690;9.562;2024-03-23T07:43:33;9.90;99.90
48019;DHT22;33786;48.690;9.562;2024-03-23T07:45:59;10.20;99.90
48019;DHT22;33786;48.690;9.562;2024-03-23T07:48:25;10.20;99.90
48019;DHT22;33786;48.690;9.562;2024-03-23T07:51:02;9.90;99.90
48019;DHT22;33786;48.690;9.562;2024-03-23T07:53:29;9.80;99.90
48019;DHT22;33786;48.690;9.562;2024-03-23T07:56:00;9.80;99.90
48019;DHT22;33786;48.690;9.562;2024-03-23T07:58:26;9.60;99.90
48019;DHT22;33786;48.690;9.562;2024-03-23T08:00:55;9.50;99.90
48019;DHT22;33786;48.690;9.562;2024-03-23T08:03:22;9.30;99.90
48019;DHT22;33786;48.690;9.562;2024-03-23T08:05:48;9.20;99.90
48019;DHT22;33786;48.690;9.562;2024-03-23T08:08:14;9.30;99.90
48019;DHT22;33786;48.690;9.562;2024-03-23T08:10:50;9.40;99.90
48019;DHT22;33786;48.690;9.562;2024-03-23T08:13:17;9.60;99.90
48019;DHT22;33786;48.690;9.562;2024-03-23T08:15:43;9.80;99.90
48019;DHT22;33786;48.690;9.562;2024-03-23T08:18:11;9.80;99.90
48019;DHT22;33786;48.690;9.562;2024-03-23T08:20:37;9.70;99.90
48019;DHT22;33786;48.690;9.562;2024-03-23T08:23:07;9.60;99.90
48019;DHT22;33786;48.690;9.562;2024-03-23T08:25:33;9.60;99.90
48019;DHT22;33786;48.690;9.562;2024-03-23T08:27:59;9.60;99.90
48019;DHT22;33786;48.690;9.562;2024-03-23T08:30:25;9.50;99.90
48019;DHT22;33786;48.690;9.562;2024-03-23T08:32:51;9.50;99.90
48019;DHT22;33786;48.690;9.562;2024-03-23T08:35:17;9.20;99.90
48019;DHT22;33786;48.690;9.562;2024-03-23T08:37:43;9.10;99.90
48019;DHT22;33786;48.690;9.562;2024-03-23T08:40:09;8.90;99.90
48019;DHT22;33786;48.690;9.562;2024-03-23T08:42:35;8.60;99.90
48019;DHT22;33786;48.690;9.562;2024-03-23T08:45:01;8.80;99.90
48019;DHT22;33786;48.690;9.562;2024-03-23T08:47:27;8.80;99.90
48019;DHT22;33786;48.690;9.562;2024-03-23T08:49:53;8.70;99.90
48019;DHT22;33786;48.690;9.562;2024-03-23T08:52:19;8.70;99.90
48019;DHT22;33786;48.690;9.562;2024-03-23T08:54:44;9.30;99.90
48019;DHT22;33786;48.690;9.562;2024-03-23T08:57:11;9.90;99.90
48019;DHT22;33786;48.690;9.562;2024-03-23T08:59:38;10.10;99.90
48019;DHT22;33786;48.690;9.562;2024-03-23T09:02:03;11.60;99.90
48019;DHT22;33786;48.690;9.562;2024-03-23T09:04:30;12.90;99.90
48019;DHT22;33786;48.690;9.562;2024-03-23T09:06:57;13.50;99.90
48019;DHT22;33786;48.690;9.562;2024-03-23T09:09:24;13.10;99.90
48019;DHT22;33786;48.690;9.562;2024-03-23T09:11:50;12.50;99.90
48019;DHT22;33786;48.690;9.562;2024-03-23T09:14:28;11.70;99.90
48019;DHT22;33786;48.690;9.562;2024-03-23T09:16:55;10.90;99.90
48019;DHT22;33786;48.690;9.562;2024-03-23T09:19:21;10.50;99.90
48019;DHT22;33786;48.690;9.562;2024-03-23T09:21:46;10.10;99.90
48019;DHT22;33786;48.690;9.562;2024-03-23T09:24:12;10.10;99.90
48019;DHT22;33786;48.690;9.562;2024-03-23T09:26:38;10.00;99.90
48019;DHT22;33786;48.690;9.562;2024-03-23T09:29:04;9.60;99.90
48019;DHT22;33786;48.690;9.562;2024-03-23T09:31:30;9.50;99.90
48019;DHT22;33786;48.690;9.562;2024-03-23T09:33:58;9.70;99.90
48019;DHT22;33786;48.690;9.562;2024-03-23T09:36:23;9.70;99.90
48019;DHT22;33786;48.690;9.562;2024-03-23T09:38:49;9.10;99.90
48019;DHT22;33786;48.690;9.562;2024-03-23T09:41:15;9.00;99.90
48019;DHT22;33786;48.690;9.562;2024-03-23T09:43:41;9.00;99.90
48019;DHT22;33786;48.690;9.562;2024-03-23T09:46:08;9.10;99.90
48019;DHT22;33786;48.690;9.562;2024-03-23T09:48:34;9.10;99.90
48019;DHT22;33786;48.690;9.562;2024-03-23T09:51:00;9.20;99.90
48019;DHT22;33786;48.690;9.562;2024-03-23T09:53:27;9.20;99.90
48019;DHT22;33786;48.690;9.562;2024-03-23T09:55:53;8.90;99.90
48019;DHT22;33786;48.690;9.562;2024-03-23T09:58:23;9.40;99.90
48019;DHT22;33786;48.690;9.562;2024-03-23T10:00:49;9.80;99.90
48019;DHT22;33786;48.690;9.562;2024-03-23T10:03:14;10.40;99.90
48019;DHT22;33786;48.690;9.562;2024-03-23T10:05:40;12.50;99.90
48019;DHT22;33786;48.690;9.562;2024-03-23T10:10:42;18.10;90.90
48019;DHT22;33786;48.690;9.562;2024-03-23T10:13:08;19.10;88.30
48019;DHT22;33786;48.690;9.562;2024-03-23T10:15:35;19.20;86.80
48019;DHT22;33786;48.690;9.562;2024-03-23T10:18:20;19.70;86.20
48019;DHT22;33786;48.690;9.562;2024-03-23T10:23:36;17.00;90.20
48019;DHT22;33786;48.690;9.562;2024-03-23T10:29:01;15.50;90.90
48019;DHT22;33786;48.690;9.562;2024-03-23T10:31:31;14.80;91.00
48019;DHT22;33786;48.690;9.562;2024-03-23T10:33:57;13.40;89.40
48019;DHT22;33786;48.690;9.562;2024-03-23T10:36:24;12.50;91.10
48019;DHT22;33786;48.690;9.562;2024-03-23T10:38:54;12.30;91.40
48019;DHT22;33786;48.690;9.562;2024-03-23T10:41:20;12.50;91.70
48019;DHT22;33786;48.690;9.562;2024-03-23T10:43:48;13.60;91.70
48019;DHT22;33786;48.690;9.562;2024-03-23T10:46:15;15.60;90.20
48019;DHT22;33786;48.690;9.562;2024-03-23T10:48:41;16.00;87.80
48019;DHT22;33786;48.690;9.562;2024-03-23T10:51:08;16.80;86.20
48019;DHT22;33786;48.690;9.562;2024-03-23T10:53:38;16.30;85.50
48019;DHT22;33786;48.690;9.562;2024-03-23T10:56:32;15.00;86.10
48019;DHT22;33786;48.690;9.562;2024-03-23T10:59:02;13.80;87.00
48019;DHT22;33786;48.690;9.562;2024-03-23T11:01:30;13.20;89.80
48019;DHT22;33786;48.690;9.562;2024-03-23T11:03:56;12.60;90.40
48019;DHT22;33786;48.690;9.562;2024-03-23T11:06:36;11.90;91.80
48019;DHT22;33786;48.690;9.562;2024-03-23T11:09:02;11.80;91.80
48019;DHT22;33786;48.690;9.562;2024-03-23T11:11:28;11.80;92.50
48019;DHT22;33786;48.690;9.562;2024-03-23T11:13:58;11.80;92.50
48019;DHT22;33786;48.690;9.562;2024-03-23T11:16:28;11.90;92.80
48019;DHT22;33786;48.690;9.562;2024-03-23T11:19:38;12.10;92.10
48019;DHT22;33786;48.690;9.562;2024-03-23T11:22:04;11.80;90.80
48019;DHT22;33786;48.690;9.562;2024-03-23T11:24:33;11.20;91.50
48019;DHT22;33786;48.690;9.562;2024-03-23T11:27:00;10.50;92.70
48019;DHT22;33786;48.690;9.562;2024-03-23T11:29:29;9.20;97.70
48019;DHT22;33786;48.690;9.562;2024-03-23T11:31:55;8.70;99.90
48019;DHT22;33786;48.690;9.562;2024-03-23T11:34:22;8.20;99.90
48019;DHT22;33786;48.690;9.562;2024-03-23T11:36:48;7.60;99.90
48019;DHT22;33786;48.690;9.562;2024-03-23T11:39:17;7.20;99.90
48019;DHT22;33786;48.690;9.562;2024-03-23T11:41:54;7.00;99.90
48019;DHT22;33786;48.690;9.562;2024-03-23T11:44:27;7.20;99.90
48019;DHT22;33786;48.690;9.562;2024-03-23T11:46:53;7.40;99.90
48019;DHT22;33786;48.690;9.562;2024-03-23T11:49:26;7.70;99.90
48019;DHT22;33786;48.690;9.562;2024-03-23T11:51:54;8.00;99.90
48019;DHT22;33786;48.690;9.562;2024-03-23T11:54:22;8.20;99.90
48019;DHT22;33786;48.690;9.562;2024-03-23T11:56:57;8.40;99.90
48019;DHT22;33786;48.690;9.562;2024-03-23T11:59:36;8.50;99.90
48019;DHT22;33786;48.690;9.562;2024-03-23T12:02:09;8.60;99.90
48019;DHT22;33786;48.690;9.562;2024-03-23T12:04:36;8.60;99.90
48019;DHT22;33786;48.690;9.562;2024-03-23T12:07:15;8.50;99.90
48019;DHT22;33786;48.690;9.562;2024-03-23T12:09:41;8.40;99.90
48019;DHT22;33786;48.690;9.562;2024-03-23T12:12:15;8.10;99.90
48019;DHT22;33786;48.690;9.562;2024-03-23T12:14:42;8.00;99.90
48019;DHT22;33786;48.690;9.562;2024-03-23T12:17:13;8.00;99.90
48019;DHT22;33786;48.690;9.562;2024-03-23T12:19:40;7.90;99.90
48019;DHT22;33786;48.690;9.562;2024-03-23T12:22:08;8.10;99.90
48019;DHT22;33786;48.690;9.562;2024-03-23T12:24:34;8.30;99.90
48019;DHT22;33786;48.690;9.562;2024-03-23T12:27:04;8.30;99.90
48019;DHT22;33786;48.690;9.562;2024-03-23T12:29:31;8.20;99.90
48019;DHT22;33786;48.690;9.562;2024-03-23T12:32:01;8.10;99.90
48019;DHT22;33786;48.690;9.562;2024-03-23T12:34:28;8.10;99.90
48019;DHT22;33786;48.690;9.562;2024-03-23T12:36:54;8.00;99.90
48019;DHT22;33786;48.690;9.562;2024-03-23T12:39:20;8.00;99.90
48019;DHT22;33786;48.690;9.562;2024-03-23T12:41:49;8.30;99.90
48019;DHT22;33786;48.690;9.562;2024-03-23T12:44:15;8.40;99.90
48019;DHT22;33786;48.690;9.562;2024-03-23T12:46:42;8.50;99.90
48019;DHT22;33786;48.690;9.562;2024-03-23T12:49:08;8.90;99.90
48019;DHT22;33786;48.690;9.562;2024-03-23T12:51:34;8.90;99.90
48019;DHT22;33786;48.690;9.562;2024-03-23T12:54:00;8.90;99.90
48019;DHT22;33786;48.690;9.562;2024-03-23T12:56:25;9.00;99.90
48019;DHT22;33786;48.690;9.562;2024-03-23T12:58:54;8.90;99.90
48019;DHT22;33786;48.690;9.562;2024-03-23T13:01:21;8.70;99.90
48019;DHT22;33786;48.690;9.562;2024-03-23T13:03:47;8.60;99.90
48019;DHT22;33786;48.690;9.562;2024-03-23T13:06:13;8.50;99.90
48019;DHT22;33786;48.690;9.562;2024-03-23T13:08:39;8.40;99.90
48019;DHT22;33786;48.690;9.562;2024-03-23T13:11:08;8.40;99.90
48019;DHT22;33786;48.690;9.562;2024-03-23T13:13:36;8.70;99.90
48019;DHT22;33786;48.690;9.562;2024-03-23T13:16:04;8.90;99.90
48019;DHT22;33786;48.690;9.562;2024-03-23T13:18:31;9.30;99.90
48019;DHT22;33786;48.690;9.562;2024-03-23T13:20:58;9.40;99.90
48019;DHT22;33786;48.690;9.562;2024-03-23T13:23:24;9.10;99.90
48019;DHT22;33786;48.690;9.562;2024-03-23T13:28:19;8.60;99.90
48019;DHT22;33786;48.690;9.562;2024-03-23T13:33:17;8.60;99.90
48019;DHT22;33786;48.690;9.562;2024-03-23T13:35:49;8.60;99.90
48019;DHT22;33786;48.690;9.562;2024-03-23T13:38:15;8.80;99.90
48019;DHT22;33786;48.690;9.562;2024-03-23T13:40:56;8.60;99.90
48019;DHT22;33786;48.690;9.562;2024-03-23T13:43:23;8.70;99.90
48019;DHT22;33786;48.690;9.562;2024-03-23T13:45:59;8.70;99.90
48019;DHT22;33786;48.690;9.562;2024-03-23T13:48:27;8.90;99.90
48019;DHT22;33786;48.690;9.562;2024-03-23T13:51:01;9.30;99.90
48019;DHT22;33786;48.690;9.562;2024-03-23T13:53:27;9.40;99.90
48019;DHT22;33786;48.690;9.562;2024-03-23T13:55:53;9.50;99.90
48019;DHT22;33786;48.690;9.562;2024-03-23T13:58:19;9.90;99.90
48019;DHT22;33786;48.690;9.562;2024-03-23T14:00:46;10.10;99.90
48019;DHT22;33786;48.690;9.562;2024-03-23T14:03:13;9.90;99.90
48019;DHT22;33786;48.690;9.562;2024-03-23T14:05:39;9.80;99.50
48019;DHT22;33786;48.690;9.562;2024-03-23T14:08:08;9.60;99.20
48019;DHT22;33786;48.690;9.562;2024-03-23T14:10:35;9.60;99.90
48019;DHT22;33786;48.690;9.562;2024-03-23T14:13:03;9.60;99.90
48019;DHT22;33786;48.690;9.562;2024-03-23T14:15:29;9.40;99.90
48019;DHT22;33786;48.690;9.562;2024-03-23T14:17:58;9.40;99.90
48019;DHT22;33786;48.690;9.562;2024-03-23T14:20:24;9.40;99.50
48019;DHT22;33786;48.690;9.562;2024-03-23T14:22:51;9.50;99.50
48019;DHT22;33786;48.690;9.562;2024-03-23T14:25:17;9.70;98.40
48019;DHT22;33786;48.690;9.562;2024-03-23T14:27:44;9.60;98.10
48019;DHT22;33786;48.690;9.562;2024-03-23T14:30:11;9.70;97.80
48019;DHT22;33786;48.690;9.562;2024-03-23T14:32:38;9.80;98.20
48019;DHT22;33786;48.690;9.562;2024-03-23T14:35:05;9.80;98.20
48019;DHT22;33786;48.690;9.562;2024-03-23T14:37:31;9.80;97.90
48019;DHT22;33786;48.690;9.562;2024-03-23T14:39:58;9.60;97.10
48019;DHT22;33786;48.690;9.562;2024-03-23T14:42:24;9.50;97.90
48019;DHT22;33786;48.690;9.562;2024-03-23T14:44:51;9.60;98.30
48019;DHT22;33786;48.690;9.562;2024-03-23T14:47:18;9.50;98.40
48019;DHT22;33786;48.690;9.562;2024-03-23T14:49:44;9.20;99.00
48019;DHT22;33786;48.690;9.562;2024-03-23T14:52:13;8.70;99.50
48019;DHT22;33786;48.690;9.562;2024-03-23T14:54:40;8.50;99.90
48019;DHT22;33786;48.690;9.562;2024-03-23T14:57:06;8.50;99.90
48019;DHT22;33786;48.690;9.562;2024-03-23T14:59:36;8.80;99.90
48019;DHT22;33786;48.690;9.562;2024-03-23T15:02:04;9.10;99.90
48019;DHT22;33786;48.690;9.562;2024-03-23T15:04:30;9.40;99.90
48019;DHT22;33786;48.690;9.562;2024-03-23T15:06:56;9.60;99.90
48019;DHT22;33786;48.690;9.562;2024-03-23T15:09:22;9.50;99.90
48019;DHT22;33786;48.690;9.562;2024-03-23T15:11:48;9.20;99.90
48019;DHT22;33786;48.690;9.562;2024-03-23T15:14:13;8.80;99.30
48019;DHT22;33786;48.690;9.562;2024-03-23T15:16:39;8.70;99.50
48019;DHT22;33786;48.690;9.562;2024-03-23T15:19:08;8.50;99.30
48019;DHT22;33786;48.690;9.562;2024-03-23T15:21:34;8.50;99.20
48019;DHT22;33786;48.690;9.562;2024-03-23T15:24:00;8.60;99.40
48019;DHT22;33786;48.690;9.562;2024-03-23T15:26:26;8.40;98.80
48019;DHT22;33786;48.690;9.562;2024-03-23T15:28:52;8.40;99.10
48019;DHT22;33786;48.690;9.562;2024-03-23T15:31:24;8.10;98.90
48019;DHT22;33786;48.690;9.562;2024-03-23T15:33:51;8.00;99.40
48019;DHT22;33786;48.690;9.562;2024-03-23T15:36:17;8.10;99.20
48019;DHT22;33786;48.690;9.562;2024-03-23T15:38:43;7.90;99.90
48019;DHT22;33786;48.690;9.562;2024-03-23T15:41:09;7.90;99.90
48019;DHT22;33786;48.690;9.562;2024-03-23T15:43:35;8.20;99.90
48019;DHT22;33786;48.690;9.562;2024-03-23T15:46:03;8.20;99.90
48019;DHT22;33786;48.690;9.562;2024-03-23T15:48:30;8.20;99.90
48019;DHT22;33786;48.690;9.562;2024-03-23T15:50:58;8.20;99.90
48019;DHT22;33786;48.690;9.562;2024-03-23T15:53:25;8.10;99.90
48019;DHT22;33786;48.690;9.562;2024-03-23T15:55:55;8.10;99.90
48019;DHT22;33786;48.690;9.562;2024-03-23T15:58:22;8.00;99.90
48019;DHT22;33786;48.690;9.562;2024-03-23T16:01:02;7.90;99.90
48019;DHT22;33786;48.690;9.562;2024-03-23T16:03:29;7.60;99.90
48019;DHT22;33786;48.690;9.562;2024-03-23T16:05:57;7.40;99.90
48019;DHT22;33786;48.690;9.562;2024-03-23T16:08:24;7.40;99.90
48019;DHT22;33786;48.690;9.562;2024-03-23T16:10:50;7.30;99.90
48019;DHT22;33786;48.690;9.562;2024-03-23T16:13:17;7.20;99.90
48019;DHT22;33786;48.690;9.562;2024-03-23T16:15:44;7.20;99.90
48019;DHT22;33786;48.690;9.562;2024-03-23T16:18:10;7.20;99.90
48019;DHT22;33786;48.690;9.562;2024-03-23T16:20:36;7.10;99.90
48019;DHT22;33786;48.690;9.562;2024-03-23T16:23:03;7.10;99.90
48019;DHT22;33786;48.690;9.562;2024-03-23T16:25:29;7.10;99.90
48019;DHT22;33786;48.690;9.562;2024-03-23T16:27:58;7.00;99.90
48019;DHT22;33786;48.690;9.562;2024-03-23T16:30:24;7.00;99.90
48019;DHT22;33786;48.690;9.562;2024-03-23T16:32:50;6.90;99.90
48019;DHT22;33786;48.690;9.562;2024-03-23T16:35:16;6.90;99.90
48019;DHT22;33786;48.690;9.562;2024-03-23T16:37:48;6.90;99.90
48019;DHT22;33786;48.690;9.562;2024-03-23T16:40:14;6.80;99.90
48019;DHT22;33786;48.690;9.562;2024-03-23T16:42:40;6.80;99.90
48019;DHT22;33786;48.690;9.562;2024-03-23T16:45:07;6.80;99.90
48019;DHT22;33786;48.690;9.562;2024-03-23T16:47:33;6.90;99.90
48019;DHT22;33786;48.690;9.562;2024-03-23T16:49:59;6.80;99.90
48019;DHT22;33786;48.690;9.562;2024-03-23T16:52:25;6.70;99.90